createdAt,value
2023-01-09T00:03:01.026Z,0.88
2023-01-09T00:06:07.550Z,0.87
2023-01-09T00:09:17.019Z,0.74
2023-01-09T00:12:23.126Z,0.81
2023-01-09T00:15:30.360Z,0.75
2023-01-09T00:18:37.360Z,0.78
2023-01-09T00:21:44.303Z,0.79
2023-01-09T00:24:52.978Z,0.90
2023-01-09T00:27:59.955Z,0.88
2023-01-09T00:31:09.590Z,0.86
2023-01-09T00:34:16.662Z,0.68
2023-01-09T00:37:22.731Z,0.58
2023-01-09T00:40:32.290Z,0.54
2023-01-09T00:43:48.012Z,0.50
2023-01-09T00:47:00.608Z,0.49
2023-01-09T00:50:13.497Z,0.38
2023-01-09T00:53:26.727Z,0.66
2023-01-09T00:56:39.279Z,0.72
2023-01-09T00:59:47.547Z,0.76
2023-01-09T01:02:53.697Z,0.83
2023-01-09T01:06:13.073Z,0.83
2023-01-09T01:09:19.197Z,0.97
2023-01-09T01:12:28.951Z,0.89
2023-01-09T01:15:35.335Z,0.87
2023-01-09T01:18:43.738Z,0.90
2023-01-09T01:21:49.945Z,0.85
2023-01-09T01:24:56.930Z,0.79
2023-01-09T01:28:05.684Z,0.74
2023-01-09T01:31:18.648Z,0.80
2023-01-09T01:34:24.861Z,0.68
2023-01-09T01:37:31.828Z,0.61
2023-01-09T01:40:38.548Z,0.67
2023-01-09T01:44:00.024Z,0.81
2023-01-09T01:47:06.333Z,0.90
2023-01-09T01:50:24.563Z,0.71
2023-01-09T01:53:39.065Z,0.49
2023-01-09T01:56:53.860Z,0.34
2023-01-09T02:00:07.772Z,0.22
2023-01-09T02:03:18.887Z,-0.10
2023-01-09T02:06:25.126Z,-0.30
2023-01-09T02:09:32.492Z,-0.45
2023-01-09T02:12:38.467Z,-0.46
2023-01-09T02:16:22.855Z,-0.36
2023-01-09T02:20:43.573Z,-0.38
2023-01-09T02:24:31.304Z,-0.30
2023-01-09T02:28:37.328Z,-0.37
2023-01-09T02:32:00.144Z,-0.19
2023-01-09T02:35:31.552Z,-0.01
2023-01-09T02:38:56.470Z,0.13
2023-01-09T02:42:16.194Z,0.18
2023-01-09T02:45:22.551Z,0.14
2023-01-09T02:48:34.400Z,0.16
2023-01-09T02:51:55.162Z,-0.05
2023-01-09T02:55:19.570Z,-0.12
2023-01-09T02:58:54.927Z,-0.23
2023-01-09T03:02:35.191Z,-0.25
2023-01-09T03:05:56.956Z,-0.17
2023-01-09T03:09:15.278Z,-0.32
2023-01-09T03:12:28.746Z,-0.13
2023-01-09T03:15:42.939Z,-0.08
2023-01-09T03:18:54.779Z,-0.17
2023-01-09T03:22:05.116Z,-0.16
2023-01-09T03:25:13.244Z,-0.05
2023-01-09T03:28:32.155Z,0.14
2023-01-09T03:31:38.375Z,0.22
2023-01-09T03:34:45.210Z,0.13
2023-01-09T03:37:54.243Z,0.26
2023-01-09T03:41:01.281Z,0.20
2023-01-09T03:44:07.403Z,0.10
2023-01-09T03:47:14.254Z,0.19
2023-01-09T03:50:20.491Z,0.05
2023-01-09T03:53:32.204Z,0.14
2023-01-09T03:56:38.489Z,0.22
2023-01-09T03:59:45.405Z,0.14
2023-01-09T04:02:51.665Z,0.17
2023-01-09T04:05:58.721Z,0.26
2023-01-09T04:09:07.491Z,0.27
2023-01-09T04:12:14.615Z,0.11
2023-01-09T04:15:21.047Z,-0.24
2023-01-09T04:18:27.971Z,-0.16
2023-01-09T04:21:34.110Z,-0.01
2023-01-09T04:24:43.722Z,0.11
2023-01-09T04:27:49.873Z,0.04
2023-01-09T04:30:56.731Z,0.15
2023-01-09T04:34:02.735Z,0.22
2023-01-09T04:37:09.683Z,0.42
2023-01-09T04:40:21.582Z,0.45
2023-01-09T04:43:28.908Z,0.64
2023-01-09T04:46:34.980Z,0.72
2023-01-09T04:49:41.954Z,0.83
2023-01-09T04:52:48.116Z,0.93
2023-01-09T04:55:57.586Z,0.95
2023-01-09T04:59:03.671Z,1.08
2023-01-09T05:02:10.893Z,1.28
2023-01-09T05:05:17.077Z,1.40
2023-01-09T05:08:24.827Z,1.54
2023-01-09T05:11:33.572Z,1.58
2023-01-09T05:14:40.578Z,1.47
2023-01-09T05:17:46.634Z,1.37
2023-01-09T05:20:53.544Z,1.13
2023-01-09T05:23:59.665Z,0.80
2023-01-09T05:27:09.166Z,0.61
2023-01-09T05:30:18.210Z,0.39
2023-01-09T05:33:25.439Z,-0.07
2023-01-09T05:36:31.489Z,-0.25
2023-01-09T05:39:38.561Z,-0.26
2023-01-09T05:42:48.349Z,-0.33
2023-01-09T05:45:55.446Z,-0.28
2023-01-09T05:49:01.982Z,-0.22
2023-01-09T05:52:08.916Z,-0.10
2023-01-09T05:55:16.106Z,0.01
2023-01-09T05:58:25.628Z,0.18
2023-01-09T06:01:31.808Z,0.38
2023-01-09T06:04:38.813Z,0.57
2023-01-09T06:07:45.661Z,0.64
2023-01-09T06:10:52.667Z,0.66
2023-01-09T06:14:01.378Z,0.68
2023-01-09T06:17:08.353Z,0.74
2023-01-09T06:20:15.347Z,0.73
2023-01-09T06:23:22.239Z,0.82
2023-01-09T06:26:29.234Z,0.82
2023-01-09T06:29:38.689Z,0.76
2023-01-09T06:32:44.859Z,0.74
2023-01-09T06:35:51.797Z,0.74
2023-01-09T06:38:57.752Z,0.70
2023-01-09T06:42:04.655Z,0.77
2023-01-09T06:45:14.693Z,0.90
2023-01-09T06:48:21.481Z,0.92
2023-01-09T06:51:27.503Z,0.81
2023-01-09T06:54:34.697Z,0.67
2023-01-09T06:57:40.747Z,0.74
2023-01-09T07:00:50.953Z,0.77
2023-01-09T07:03:57.167Z,0.89
2023-01-09T07:07:04.111Z,0.77
2023-01-09T07:10:13.238Z,0.85
2023-01-09T07:13:20.089Z,0.88
2023-01-09T07:16:29.019Z,0.94
2023-01-09T07:19:36.076Z,0.79
2023-01-09T07:22:42.236Z,0.92
2023-01-09T07:25:49.937Z,0.98
2023-01-09T07:28:55.949Z,0.94
2023-01-09T07:32:05.812Z,1.06
2023-01-09T07:35:13.909Z,1.24
2023-01-09T07:38:20.898Z,1.27
2023-01-09T07:41:26.988Z,1.42
2023-01-09T07:44:34.029Z,1.47
2023-01-09T07:47:43.960Z,1.57
2023-01-09T07:50:50.800Z,1.62
2023-01-09T07:53:57.049Z,1.72
2023-01-09T07:57:04.222Z,1.78
2023-01-09T08:00:13.655Z,1.85
2023-01-09T08:03:23.129Z,2.05
2023-01-09T08:06:29.149Z,2.11
2023-01-09T08:09:35.969Z,2.20
2023-01-09T08:12:46.353Z,2.31
2023-01-09T08:15:53.140Z,2.38
2023-01-09T08:19:02.001Z,2.42
2023-01-09T08:22:08.832Z,2.66
2023-01-09T08:25:14.833Z,2.84
2023-01-09T08:28:21.679Z,2.91
2023-01-09T08:31:27.918Z,3.02
2023-01-09T08:34:38.819Z,3.07
2023-01-09T08:37:48.425Z,3.18
2023-01-09T08:40:55.670Z,3.27
2023-01-09T08:44:14.292Z,3.34
2023-01-09T08:47:28.973Z,3.28
2023-01-09T08:50:37.843Z,3.33
2023-01-09T08:53:44.803Z,3.29
2023-01-09T08:56:50.955Z,3.36
2023-01-09T08:59:57.937Z,3.36
2023-01-09T09:03:05.205Z,3.21
2023-01-09T09:06:14.842Z,3.38
2023-01-09T09:09:21.000Z,3.46
2023-01-09T09:12:28.349Z,3.58
2023-01-09T09:15:34.656Z,3.72
2023-01-09T09:18:41.612Z,3.79
2023-01-09T09:21:50.297Z,3.92
2023-01-09T09:24:57.316Z,4.03
2023-01-09T09:28:03.975Z,4.04
2023-01-09T09:31:11.656Z,4.11
2023-01-09T09:34:17.713Z,4.22
2023-01-09T09:37:27.897Z,4.34
2023-01-09T09:41:34.278Z,4.46
2023-01-09T09:45:05.875Z,4.49
2023-01-09T09:48:38.190Z,4.65
2023-01-09T09:52:12.290Z,4.76
2023-01-09T09:55:33.049Z,4.86
2023-01-09T09:58:44.749Z,4.94
2023-01-09T10:02:01.331Z,4.94
2023-01-09T10:05:20.163Z,4.95
2023-01-09T10:08:44.360Z,5.03
2023-01-09T10:12:06.990Z,5.11
2023-01-09T10:15:22.605Z,5.16
2023-01-09T10:18:50.439Z,5.25
2023-01-09T10:22:16.270Z,5.32
2023-01-09T10:25:34.453Z,5.39
2023-01-09T10:29:26.965Z,5.45
2023-01-09T10:33:04.595Z,5.63
2023-01-09T10:37:01.881Z,5.76
2023-01-09T10:40:24.022Z,5.86
2023-01-09T10:43:42.147Z,5.87
2023-01-09T10:46:58.280Z,5.89
2023-01-09T10:50:21.788Z,6.02
2023-01-09T10:53:38.850Z,5.99
2023-01-09T10:56:58.501Z,5.90
2023-01-09T11:00:06.893Z,5.96
2023-01-09T11:03:19.592Z,5.96
2023-01-09T11:06:35.535Z,5.86
2023-01-09T11:10:01.115Z,5.83
2023-01-09T11:13:22.088Z,5.75
2023-01-09T11:16:28.279Z,5.71
2023-01-09T11:19:37.850Z,5.74
2023-01-09T11:22:48.574Z,5.78
2023-01-09T11:25:58.803Z,5.75
2023-01-09T11:29:15.707Z,5.68
2023-01-09T11:32:27.936Z,5.60
2023-01-09T11:35:38.670Z,5.63
2023-01-09T11:38:54.920Z,5.59
2023-01-09T11:42:05.483Z,5.61
2023-01-09T11:45:20.694Z,5.53
2023-01-09T11:48:57.244Z,5.61
2023-01-09T11:52:23.429Z,5.46
2023-01-09T11:55:41.803Z,5.49
2023-01-09T11:58:49.320Z,5.36
2023-01-09T12:02:34.093Z,5.32
2023-01-09T12:06:01.568Z,5.24
2023-01-09T12:09:19.591Z,5.37
2023-01-09T12:12:44.943Z,5.34
2023-01-09T12:16:11.171Z,5.38
2023-01-09T12:20:07.661Z,5.39
2023-01-09T12:23:42.932Z,5.35
2023-01-09T12:27:17.526Z,5.30
2023-01-09T12:30:43.566Z,5.32
2023-01-09T12:34:23.011Z,5.40
2023-01-09T12:38:08.441Z,5.38
2023-01-09T12:41:46.626Z,5.35
2023-01-09T12:45:05.113Z,5.57
2023-01-09T12:48:38.601Z,5.67
2023-01-09T12:51:55.198Z,5.66
2023-01-09T12:55:17.734Z,5.65
2023-01-09T12:58:39.409Z,5.76
2023-01-09T13:01:53.205Z,5.75
2023-01-09T13:05:06.142Z,5.62
2023-01-09T13:08:25.928Z,5.56
2023-01-09T13:11:43.777Z,5.48
2023-01-09T13:14:59.403Z,5.44
2023-01-09T13:18:19.762Z,5.56
2023-01-09T13:21:27.672Z,5.65
2023-01-09T13:24:51.084Z,5.69
2023-01-09T13:28:05.183Z,5.87
2023-01-09T13:31:57.627Z,5.94
2023-01-09T13:35:15.642Z,5.95
2023-01-09T13:38:26.900Z,5.86
2023-01-09T13:41:48.121Z,5.99
2023-01-09T13:45:11.832Z,5.94
2023-01-09T13:48:32.394Z,5.91
2023-01-09T13:52:07.329Z,5.97
2023-01-09T13:55:36.384Z,6.04
2023-01-09T13:59:09.513Z,5.99
2023-01-09T14:02:59.356Z,6.05
2023-01-09T14:06:24.521Z,5.90
2023-01-09T14:09:37.776Z,5.92
2023-01-09T14:12:47.044Z,5.95
2023-01-09T14:16:04.666Z,5.80
2023-01-09T14:19:35.095Z,5.79
2023-01-09T14:22:50.471Z,5.72
2023-01-09T14:26:06.834Z,5.79
2023-01-09T14:29:47.641Z,5.79
2023-01-09T14:33:00.929Z,5.77
2023-01-09T14:36:19.752Z,5.86
2023-01-09T14:39:29.092Z,5.69
2023-01-09T14:42:45.027Z,5.63
2023-01-09T14:45:53.364Z,5.63
2023-01-09T14:49:16.560Z,5.51
2023-01-09T14:52:31.208Z,5.50
2023-01-09T14:55:54.047Z,5.51
2023-01-09T14:59:16.754Z,5.45
2023-01-09T15:02:24.504Z,5.33
2023-01-09T15:05:31.870Z,5.48
2023-01-09T15:08:40.629Z,5.38
2023-01-09T15:11:47.717Z,5.36
2023-01-09T15:15:05.002Z,5.38
2023-01-09T15:18:12.912Z,5.37
2023-01-09T15:21:27.702Z,5.30
2023-01-09T15:24:37.541Z,5.18
2023-01-09T15:27:51.806Z,5.09
2023-01-09T15:31:08.022Z,5.14
2023-01-09T15:34:24.944Z,5.23
2023-01-09T15:37:39.150Z,5.28
2023-01-09T15:40:46.818Z,5.26
2023-01-09T15:43:53.077Z,5.07
2023-01-09T15:47:07.469Z,5.26
2023-01-09T15:50:19.077Z,5.17
2023-01-09T15:53:29.906Z,5.22
2023-01-09T15:56:39.381Z,5.20
2023-01-09T15:59:46.354Z,5.23
2023-01-09T16:03:07.584Z,5.23
2023-01-09T16:06:26.630Z,5.21
2023-01-09T16:09:38.027Z,5.19
2023-01-09T16:12:44.968Z,5.15
2023-01-09T16:15:52.503Z,5.08
2023-01-09T16:19:03.063Z,5.05
2023-01-09T16:22:24.071Z,5.13
2023-01-09T16:25:35.174Z,5.18
2023-01-09T16:28:43.219Z,5.20
2023-01-09T16:31:50.457Z,5.18
2023-01-09T16:35:05.574Z,5.31
2023-01-09T16:38:17.900Z,5.38
2023-01-09T16:41:40.376Z,5.46
2023-01-09T16:44:47.585Z,5.45
2023-01-09T16:47:55.482Z,5.40
2023-01-09T16:51:05.030Z,5.43
2023-01-09T16:54:11.943Z,5.42
2023-01-09T16:57:21.850Z,5.37
2023-01-09T17:00:28.422Z,5.20
2023-01-09T17:03:35.574Z,5.39
2023-01-09T17:06:45.690Z,5.34
2023-01-09T17:09:53.476Z,5.40
2023-01-09T17:12:59.759Z,5.39
2023-01-09T17:16:08.955Z,5.38
2023-01-09T17:19:23.689Z,5.46
2023-01-09T17:22:33.202Z,5.50
2023-01-09T17:25:52.338Z,5.55
2023-01-09T17:28:59.271Z,5.59
2023-01-09T17:32:06.927Z,5.57
2023-01-09T17:35:16.278Z,5.54
2023-01-09T17:38:25.138Z,5.67
2023-01-09T17:41:35.147Z,5.65
2023-01-09T17:44:41.562Z,5.48
2023-01-09T17:47:48.464Z,5.36
2023-01-09T17:50:54.585Z,5.47
2023-01-09T17:54:04.172Z,5.56
2023-01-09T17:57:17.680Z,5.60
2023-01-09T18:00:30.950Z,5.63
2023-01-09T18:03:36.989Z,5.68
2023-01-09T18:06:44.056Z,5.76
2023-01-09T18:09:52.747Z,5.79
2023-01-09T18:13:00.604Z,5.84
2023-01-09T18:16:07.576Z,5.86
2023-01-09T18:19:14.543Z,5.86
2023-01-09T18:22:20.764Z,5.80
2023-01-09T18:25:30.264Z,5.77
2023-01-09T18:28:39.300Z,5.70
2023-01-09T18:31:46.283Z,5.64
2023-01-09T18:34:52.404Z,5.60
2023-01-09T18:37:59.373Z,5.51
2023-01-09T18:41:09.450Z,5.49
2023-01-09T18:44:18.245Z,5.38
2023-01-09T18:47:24.243Z,5.38
2023-01-09T18:50:31.249Z,5.45
2023-01-09T18:53:38.393Z,5.39
2023-01-09T18:56:48.018Z,5.37
2023-01-09T18:59:54.302Z,5.20
2023-01-09T19:03:01.651Z,5.15
2023-01-09T19:06:08.777Z,5.28
2023-01-09T19:09:16.132Z,5.24
2023-01-09T19:12:25.591Z,5.28
2023-01-09T19:15:34.905Z,5.25
2023-01-09T19:18:44.771Z,5.29
2023-01-09T19:21:51.856Z,5.31
2023-01-09T19:24:58.097Z,5.21
2023-01-09T19:28:08.101Z,5.07
2023-01-09T19:31:14.495Z,5.05
2023-01-09T19:34:21.789Z,5.09
2023-01-09T19:37:28.022Z,5.17
2023-01-09T19:40:35.204Z,5.21
2023-01-09T19:43:44.757Z,5.18
2023-01-09T19:46:51.960Z,5.29
2023-01-09T19:49:58.300Z,5.37
2023-01-09T19:53:05.280Z,5.38
2023-01-09T19:56:17.414Z,5.37
2023-01-09T19:59:27.015Z,5.34
2023-01-09T20:02:33.127Z,5.27
2023-01-09T20:05:40.062Z,5.32
2023-01-09T20:08:47.786Z,5.20
2023-01-09T20:11:54.735Z,5.27
2023-01-09T20:15:03.439Z,5.28
2023-01-09T20:18:10.628Z,5.14
2023-01-09T20:24:30.169Z,5.00
2023-01-09T20:27:36.252Z,4.92
2023-01-09T20:30:50.680Z,4.89
2023-01-09T20:33:59.191Z,4.90
2023-01-09T20:37:06.103Z,4.78
2023-01-09T20:40:14.308Z,4.83
2023-01-09T20:43:21.356Z,4.79
2023-01-09T20:46:37.094Z,4.70
2023-01-09T20:49:43.990Z,4.58
2023-01-09T20:52:52.036Z,4.52
2023-01-09T20:56:04.370Z,4.57
2023-01-09T20:59:17.391Z,4.67
2023-01-09T21:02:26.993Z,4.71
2023-01-09T21:05:33.125Z,4.68
2023-01-09T21:08:42.218Z,4.55
2023-01-09T21:11:48.373Z,4.52
2023-01-09T21:14:55.399Z,4.52
2023-01-09T21:18:04.272Z,4.46
2023-01-09T21:21:16.287Z,4.39
2023-01-09T21:24:22.433Z,4.28
2023-01-09T21:27:30.833Z,4.24
2023-01-09T21:30:37.180Z,4.20
2023-01-09T21:33:47.046Z,4.14
2023-01-09T21:36:54.033Z,4.14
2023-01-09T21:40:01.024Z,4.08
2023-01-09T21:43:19.629Z,4.12
2023-01-09T21:46:39.076Z,4.07
2023-01-09T21:49:48.602Z,4.11
2023-01-09T21:52:55.544Z,4.09
2023-01-09T21:56:05.431Z,4.12
2023-01-09T21:59:13.643Z,4.07
2023-01-09T22:02:21.686Z,4.14
2023-01-09T22:05:32.044Z,4.12
2023-01-09T22:08:39.222Z,4.12
2023-01-09T22:11:46.941Z,4.00
2023-01-09T22:14:52.960Z,4.01
2023-01-09T22:17:59.893Z,3.86
2023-01-09T22:21:09.264Z,3.82
2023-01-09T22:24:19.794Z,3.87
2023-01-09T22:27:26.319Z,3.77
2023-01-09T22:30:33.448Z,3.80
2023-01-09T22:33:39.614Z,3.75
2023-01-09T22:36:50.696Z,3.68
2023-01-09T22:39:56.809Z,3.70
2023-01-09T22:43:03.744Z,3.73
2023-01-09T22:46:12.762Z,3.70
2023-01-09T22:49:19.837Z,3.64
2023-01-09T22:52:28.957Z,3.55
2023-01-09T22:55:35.922Z,3.41
2023-01-09T22:58:42.481Z,3.47
2023-01-09T23:01:49.517Z,3.59
2023-01-09T23:04:58.534Z,3.44
2023-01-09T23:08:08.460Z,3.48
2023-01-09T23:11:39.516Z,3.53
2023-01-09T23:14:46.510Z,3.37
2023-01-09T23:17:52.542Z,3.46
2023-01-09T23:21:03.054Z,3.54
2023-01-09T23:24:12.511Z,3.54
2023-01-09T23:27:19.442Z,3.49
2023-01-09T23:30:26.080Z,3.43
2023-01-09T23:33:33.125Z,3.42
2023-01-09T23:36:39.869Z,3.51
2023-01-09T23:39:49.375Z,3.49
2023-01-09T23:43:07.832Z,3.48
2023-01-09T23:46:15.490Z,3.45
2023-01-09T23:49:21.631Z,3.40
2023-01-09T23:52:28.517Z,3.33
2023-01-09T23:55:39.445Z,3.32
2023-01-09T23:58:46.398Z,3.20
